createdAt,value
2024-01-15T00:00:28.007Z,99360.13
2024-01-15T00:02:54.671Z,99391.03
2024-01-15T00:05:21.199Z,99369.69
2024-01-15T00:07:47.580Z,99341.78
2024-01-15T00:10:14.073Z,99328.97
2024-01-15T00:12:40.593Z,99343.41
2024-01-15T00:15:07.452Z,99367.56
2024-01-15T00:17:33.960Z,99312.88
2024-01-15T00:20:00.601Z,99333.47
2024-01-15T00:22:28.210Z,99341.81
2024-01-15T00:24:54.672Z,99167.81
2024-01-15T00:27:21.226Z,99310.75
2024-01-15T00:29:47.691Z,99324.31
2024-01-15T00:32:14.146Z,99331.97
2024-01-15T00:34:40.733Z,99268.16
2024-01-15T00:37:07.996Z,99323.38
2024-01-15T00:39:34.522Z,99297.13
2024-01-15T00:42:00.930Z,99322.69
2024-01-15T00:44:27.340Z,99231.31
2024-01-15T00:46:53.735Z,99276.69
2024-01-15T00:49:20.231Z,99272.31
2024-01-15T00:51:46.703Z,99276.31
2024-01-15T00:54:13.272Z,99319.16
2024-01-15T00:56:39.800Z,99313.88
2024-01-15T00:59:06.264Z,99135.16
2024-01-15T01:01:32.840Z,99256.59
2024-01-15T01:03:59.348Z,99268.16
2024-01-15T01:06:26.129Z,99257.72
2024-01-15T01:08:52.696Z,99152.69
2024-01-15T01:11:19.292Z,99263.91
2024-01-15T01:13:45.774Z,99205.63
2024-01-15T01:16:12.290Z,99076.97
2024-01-15T01:18:38.949Z,99267.56
2024-01-15T01:21:05.519Z,99242.16
2024-01-15T01:23:31.997Z,99272.25
2024-01-15T01:25:58.462Z,99093.94
2024-01-15T01:28:24.923Z,99274.28
2024-01-15T01:30:51.563Z,99269.41
2024-01-15T01:33:18.263Z,99257.69
2024-01-15T01:35:46.116Z,99088.38
2024-01-15T01:38:12.562Z,99180.34
2024-01-15T01:40:39.021Z,99162.94
2024-01-15T01:43:06.462Z,99270.00
2024-01-15T01:45:33.084Z,99263.78
2024-01-15T01:48:00.569Z,99274.59
2024-01-15T01:50:27.288Z,99282.81
2024-01-15T01:52:54.009Z,99220.88
2024-01-15T01:55:22.338Z,99258.41
2024-01-15T01:57:49.174Z,99229.91
2024-01-15T02:00:16.032Z,99215.69
2024-01-15T02:02:42.543Z,99251.94
2024-01-15T02:05:10.263Z,99110.59
2024-01-15T02:07:37.252Z,99231.22
2024-01-15T02:10:03.897Z,99245.16
2024-01-15T02:12:30.382Z,99233.88
2024-01-15T02:14:56.855Z,99211.19
2024-01-15T02:17:23.361Z,99244.69
2024-01-15T02:19:51.148Z,99122.19
2024-01-15T02:22:17.860Z,99220.78
2024-01-15T02:24:44.607Z,99220.28
2024-01-15T02:27:11.416Z,99072.81
2024-01-15T02:29:38.030Z,99199.78
2024-01-15T02:32:09.821Z,99250.44
2024-01-15T02:34:36.409Z,99229.41
2024-01-15T02:37:03.333Z,99229.00
2024-01-15T02:39:30.243Z,99197.91
2024-01-15T02:41:58.758Z,99098.50
2024-01-15T02:44:25.303Z,99218.59
2024-01-15T02:46:53.780Z,99217.09
2024-01-15T02:49:20.267Z,99162.78
2024-01-15T02:51:47.913Z,99243.50
2024-01-15T02:54:14.523Z,99235.38
2024-01-15T02:56:41.003Z,99210.66
2024-01-15T02:59:07.434Z,99276.63
2024-01-15T03:01:33.928Z,99120.22
2024-01-15T03:04:00.495Z,99242.97
2024-01-15T03:06:28.507Z,99202.13
2024-01-15T03:08:54.971Z,99253.34
2024-01-15T03:11:21.383Z,99137.19
2024-01-15T03:13:47.822Z,99267.22
2024-01-15T03:16:15.017Z,99175.69
2024-01-15T03:18:41.531Z,99279.81
2024-01-15T03:21:08.038Z,99238.38
2024-01-15T03:23:34.439Z,99242.00
2024-01-15T03:26:01.338Z,99244.53
2024-01-15T03:28:27.780Z,99271.34
2024-01-15T03:30:54.289Z,99177.97
2024-01-15T03:33:21.020Z,99210.19
2024-01-15T03:35:47.660Z,99252.28
2024-01-15T03:38:14.015Z,99176.75
2024-01-15T03:40:40.816Z,99081.97
2024-01-15T03:43:07.305Z,99232.97
2024-01-15T03:45:33.783Z,99238.56
2024-01-15T03:48:00.387Z,99253.09
2024-01-15T03:50:26.860Z,99262.00
2024-01-15T03:52:53.216Z,99224.50
2024-01-15T03:55:19.618Z,99215.47
2024-01-15T03:57:46.109Z,99250.94
2024-01-15T04:00:13.336Z,99248.41
2024-01-15T04:02:39.753Z,99261.81
2024-01-15T04:05:06.698Z,99224.00
2024-01-15T04:07:33.125Z,99101.25
2024-01-15T04:10:00.616Z,99260.78
2024-01-15T04:12:27.141Z,99265.63
2024-01-15T04:14:53.538Z,99264.56
2024-01-15T04:17:20.030Z,99194.44
2024-01-15T04:19:46.675Z,99160.41
2024-01-15T04:22:13.226Z,99277.91
2024-01-15T04:24:39.710Z,99190.66
2024-01-15T04:27:07.430Z,99190.06
2024-01-15T04:29:33.910Z,99173.09
2024-01-15T04:32:00.457Z,99182.31
2024-01-15T04:34:27.298Z,99256.97
2024-01-15T04:36:53.774Z,99227.16
2024-01-15T04:39:20.230Z,99279.19
2024-01-15T04:41:46.677Z,99255.19
2024-01-15T04:44:13.108Z,99259.53
2024-01-15T04:46:39.576Z,99217.78
2024-01-15T04:49:06.134Z,99265.63
2024-01-15T04:51:32.639Z,99126.00
2024-01-15T04:53:59.080Z,99272.59
2024-01-15T04:56:25.496Z,99293.16
2024-01-15T04:58:51.887Z,99223.75
2024-01-15T05:01:18.714Z,99265.97
2024-01-15T05:03:45.358Z,99253.44
2024-01-15T05:06:11.934Z,99283.47
2024-01-15T05:08:38.383Z,99292.09
2024-01-15T05:11:04.856Z,99273.66
2024-01-15T05:13:31.291Z,99250.75
2024-01-15T05:15:57.805Z,99179.53
2024-01-15T05:18:24.509Z,99147.50
2024-01-15T05:20:50.946Z,99155.97
2024-01-15T05:23:17.403Z,99269.34
2024-01-15T05:25:43.796Z,99161.66
2024-01-15T05:28:11.479Z,99219.78
2024-01-15T05:30:38.069Z,99179.06
2024-01-15T05:33:05.048Z,99279.06
2024-01-15T05:35:31.510Z,99131.22
2024-01-15T05:37:57.878Z,99292.28
2024-01-15T05:40:24.307Z,99292.25
2024-01-15T05:42:50.802Z,99268.81
2024-01-15T05:45:17.720Z,99202.44
2024-01-15T05:47:45.082Z,99187.56
2024-01-15T05:50:11.528Z,99279.25
2024-01-15T05:52:37.922Z,99277.00
2024-01-15T05:55:04.617Z,99277.22
2024-01-15T05:57:31.183Z,99275.69
2024-01-15T05:59:57.626Z,99282.19
2024-01-15T06:02:24.147Z,99252.75
2024-01-15T06:04:50.801Z,99274.59
2024-01-15T06:07:17.486Z,99204.88
2024-01-15T06:09:43.907Z,99309.47
2024-01-15T06:12:10.484Z,99307.03
2024-01-15T06:14:37.052Z,99281.25
2024-01-15T06:17:03.796Z,99285.16
2024-01-15T06:19:30.401Z,99256.75
2024-01-15T06:21:57.131Z,99239.53
2024-01-15T06:24:23.746Z,99278.19
2024-01-15T06:26:50.315Z,99256.56
2024-01-15T06:29:16.786Z,99274.31
2024-01-15T06:31:43.302Z,99225.34
2024-01-15T06:34:09.928Z,99101.63
2024-01-15T06:36:36.466Z,99271.31
2024-01-15T06:39:03.509Z,99299.72
2024-01-15T06:41:29.878Z,99292.50
2024-01-15T06:43:58.800Z,99288.81
2024-01-15T06:46:25.404Z,99292.38
2024-01-15T06:48:52.050Z,99260.28
2024-01-15T06:51:18.512Z,99317.84
2024-01-15T06:53:44.968Z,99312.00
2024-01-15T06:56:11.409Z,99288.94
2024-01-15T06:58:38.039Z,99133.78
2024-01-15T07:01:05.953Z,99313.34
2024-01-15T07:03:32.823Z,99305.22
2024-01-15T07:05:59.422Z,99317.25
2024-01-15T07:08:26.006Z,99240.00
2024-01-15T07:10:53.082Z,99108.91
2024-01-15T07:13:19.504Z,99295.38
2024-01-15T07:15:46.026Z,99329.56
2024-01-15T07:18:12.665Z,99238.88
2024-01-15T07:20:39.248Z,99317.91
2024-01-15T07:23:05.745Z,99298.34
2024-01-15T07:25:32.293Z,99346.66
2024-01-15T07:27:58.809Z,99225.78
2024-01-15T07:30:25.349Z,99294.72
2024-01-15T07:32:53.495Z,99205.25
2024-01-15T07:35:20.477Z,99327.56
2024-01-15T07:37:47.179Z,99315.16
2024-01-15T07:40:13.700Z,99282.41
2024-01-15T07:42:40.410Z,99301.22
2024-01-15T07:45:07.219Z,99344.84
2024-01-15T07:47:33.691Z,99328.47
2024-01-15T07:50:04.384Z,99332.25
2024-01-15T07:52:33.132Z,99273.88
2024-01-15T07:55:04.573Z,99333.84
2024-01-15T07:57:31.060Z,99338.16
2024-01-15T07:59:57.522Z,99213.25
2024-01-15T08:02:23.974Z,99332.97
2024-01-15T08:04:50.343Z,99265.13
2024-01-15T08:07:17.053Z,99244.78
2024-01-15T08:09:43.650Z,99266.25
2024-01-15T08:12:11.352Z,99249.38
2024-01-15T08:14:37.771Z,99376.94
2024-01-15T08:17:04.326Z,99343.25
2024-01-15T08:19:31.106Z,99217.75
2024-01-15T08:21:57.751Z,99347.44
2024-01-15T08:24:24.272Z,99246.53
2024-01-15T08:26:50.714Z,99264.09
2024-01-15T08:29:17.320Z,99362.16
2024-01-15T08:31:43.908Z,99332.38
2024-01-15T08:34:10.594Z,99363.28
2024-01-15T08:36:38.002Z,99362.91
2024-01-15T08:39:05.494Z,99281.63
2024-01-15T08:41:34.618Z,99318.56
2024-01-15T08:44:01.205Z,99370.94
2024-01-15T08:46:27.602Z,99382.22
2024-01-15T08:48:54.118Z,99373.50
2024-01-15T08:51:20.649Z,99380.41
2024-01-15T08:53:47.052Z,99359.75
2024-01-15T08:56:13.491Z,99362.00
2024-01-15T08:58:40.150Z,99242.78
2024-01-15T09:01:06.770Z,99360.56
2024-01-15T09:03:34.990Z,99340.94
2024-01-15T09:06:01.580Z,99355.28
2024-01-15T09:08:28.816Z,99381.41
2024-01-15T09:10:55.310Z,99273.56
2024-01-15T09:13:21.741Z,99298.50
2024-01-15T09:15:48.397Z,99356.69
2024-01-15T09:18:15.020Z,99282.34
2024-01-15T09:20:41.459Z,99350.19
2024-01-15T09:23:08.301Z,99346.81
2024-01-15T09:25:34.817Z,99397.59
2024-01-15T09:28:01.296Z,99288.19
2024-01-15T09:30:27.943Z,99297.25
2024-01-15T09:32:56.817Z,99353.94
2024-01-15T09:35:25.378Z,99309.91
2024-01-15T09:37:52.098Z,99298.41
2024-01-15T09:40:21.211Z,99423.28
2024-01-15T09:42:48.395Z,99440.78
2024-01-15T09:45:15.650Z,99459.53
2024-01-15T09:47:45.777Z,99441.19
2024-01-15T09:50:14.354Z,99361.09
2024-01-15T09:52:43.406Z,99475.44
2024-01-15T09:55:10.791Z,99471.88
2024-01-15T09:57:38.165Z,99366.16
2024-01-15T10:00:06.713Z,99462.50
2024-01-15T10:02:33.766Z,99459.09
2024-01-15T10:05:00.370Z,99406.34
2024-01-15T10:07:27.387Z,99471.56
2024-01-15T10:09:54.026Z,99433.84
2024-01-15T10:12:23.477Z,99471.75
2024-01-15T10:14:51.425Z,99489.06
2024-01-15T10:17:18.604Z,99498.03
2024-01-15T10:19:51.147Z,99473.19
2024-01-15T10:22:20.221Z,99449.84
2024-01-15T10:24:48.668Z,99426.59
2024-01-15T10:27:16.149Z,99505.28
2024-01-15T10:29:43.475Z,99501.88
2024-01-15T10:32:10.496Z,99492.72
2024-01-15T10:34:44.562Z,99503.81
2024-01-15T10:37:11.501Z,99504.44
2024-01-15T10:39:38.910Z,99495.88
2024-01-15T10:42:07.293Z,99326.50
2024-01-15T10:44:33.872Z,99397.91
2024-01-15T10:47:00.527Z,99352.28
2024-01-15T10:49:31.894Z,99500.34
2024-01-15T10:52:00.178Z,99516.41
2024-01-15T10:54:28.789Z,99512.44
2024-01-15T10:56:57.488Z,99490.13
2024-01-15T10:59:24.431Z,99511.34
2024-01-15T11:01:55.290Z,99442.94
2024-01-15T11:04:23.421Z,99468.63
2024-01-15T11:06:55.610Z,99477.50
2024-01-15T11:09:22.668Z,99485.88
2024-01-15T11:11:53.637Z,99503.59
2024-01-15T11:14:38.782Z,99496.25
2024-01-15T11:17:06.524Z,99495.34
2024-01-15T11:19:42.288Z,99524.19
2024-01-15T11:22:10.301Z,99527.81
2024-01-15T11:24:40.806Z,99527.19
2024-01-15T11:27:09.044Z,99444.81
2024-01-15T11:29:38.056Z,99532.41
2024-01-15T11:32:11.183Z,99544.81
2024-01-15T11:35:04.908Z,99536.56
2024-01-15T11:37:51.640Z,99537.31
2024-01-15T11:40:22.862Z,99414.47
2024-01-15T11:42:50.556Z,99525.75
2024-01-15T11:45:19.896Z,99450.19
2024-01-15T11:48:13.281Z,99536.13
2024-01-15T11:50:50.247Z,99508.31
2024-01-15T11:53:49.993Z,99557.44
2024-01-15T11:56:19.050Z,99538.38
2024-01-15T11:58:46.002Z,99552.75
2024-01-15T12:01:12.716Z,99518.34
2024-01-15T12:03:39.371Z,99560.19
2024-01-15T12:06:11.227Z,99551.56
2024-01-15T12:08:37.809Z,99541.63
2024-01-15T12:11:16.683Z,99552.38
2024-01-15T12:13:43.262Z,99557.38
2024-01-15T12:16:09.854Z,99552.44
2024-01-15T12:18:36.741Z,99569.19
2024-01-15T12:21:05.156Z,99519.59
2024-01-15T12:23:31.553Z,99432.78
2024-01-15T12:25:58.015Z,99550.22
2024-01-15T12:28:24.438Z,99457.25
2024-01-15T12:30:51.625Z,99544.75
2024-01-15T12:33:21.028Z,99549.19
2024-01-15T12:35:47.764Z,99570.03
2024-01-15T12:38:14.164Z,99516.66
2024-01-15T12:40:40.543Z,99512.56
2024-01-15T12:43:08.237Z,99545.00
2024-01-15T12:45:36.749Z,99582.91
2024-01-15T12:48:04.611Z,99557.94
2024-01-15T12:50:31.773Z,99523.03
2024-01-15T12:52:59.911Z,99567.34
2024-01-15T12:55:26.543Z,99516.16
2024-01-15T12:57:55.647Z,99549.13
2024-01-15T13:00:22.439Z,99478.97
2024-01-15T13:02:50.693Z,99547.56
2024-01-15T13:05:17.771Z,99554.19
2024-01-15T13:07:45.042Z,99482.09
2024-01-15T13:10:12.408Z,99591.78
2024-01-15T13:12:39.673Z,99593.16
2024-01-15T13:15:08.820Z,99597.22
2024-01-15T13:17:35.333Z,99570.50
2024-01-15T13:20:02.030Z,99599.84
2024-01-15T13:22:33.297Z,99559.44
2024-01-15T13:25:00.605Z,99412.34
2024-01-15T13:27:27.505Z,99619.34
2024-01-15T13:29:54.002Z,99584.84
2024-01-15T13:32:26.631Z,99627.78
2024-01-15T13:34:53.268Z,99605.34
2024-01-15T13:37:19.770Z,99608.53
2024-01-15T13:39:46.219Z,99599.91
2024-01-15T13:42:12.974Z,99638.78
2024-01-15T13:44:42.374Z,99626.66
2024-01-15T13:47:10.097Z,99606.16
2024-01-15T13:49:37.843Z,99611.78
2024-01-15T13:52:05.105Z,99631.03
2024-01-15T13:54:42.066Z,99619.09
2024-01-15T13:57:15.569Z,99642.97
2024-01-15T13:59:42.161Z,99656.88
2024-01-15T14:02:08.536Z,99647.28
2024-01-15T14:04:34.981Z,99619.31
2024-01-15T14:07:01.407Z,99491.91
2024-01-15T14:09:27.814Z,99639.03
2024-01-15T14:11:54.534Z,99645.66
2024-01-15T14:14:21.038Z,99486.44
2024-01-15T14:16:47.792Z,99627.63
2024-01-15T14:19:14.406Z,99656.34
2024-01-15T14:21:40.933Z,99623.13
2024-01-15T14:24:08.637Z,99636.94
2024-01-15T14:26:35.360Z,99665.13
2024-01-15T14:29:01.788Z,99628.16
2024-01-15T14:31:29.533Z,99659.56
2024-01-15T14:34:00.590Z,99597.06
2024-01-15T14:36:27.077Z,99542.38
2024-01-15T14:38:53.632Z,99694.31
2024-01-15T14:41:22.190Z,99603.50
2024-01-15T14:43:48.652Z,99655.78
2024-01-15T14:46:15.130Z,99569.31
2024-01-15T14:48:41.691Z,99534.72
2024-01-15T14:51:08.502Z,99493.09
2024-01-15T14:53:36.858Z,99525.69
2024-01-15T14:56:04.088Z,99655.28
2024-01-15T14:58:30.700Z,99686.41
2024-01-15T15:00:57.576Z,99519.13
2024-01-15T15:03:24.257Z,99688.25
2024-01-15T15:05:50.736Z,99579.50
2024-01-15T15:08:17.287Z,99692.25
2024-01-15T15:10:43.833Z,99575.13
2024-01-15T15:13:11.338Z,99562.25
2024-01-15T15:15:38.070Z,99635.25
2024-01-15T15:18:04.753Z,99602.34
2024-01-15T15:20:31.491Z,99609.69
2024-01-15T15:22:58.316Z,99494.16
2024-01-15T15:25:51.445Z,99558.34
2024-01-15T15:28:20.269Z,99614.25
2024-01-15T15:30:50.073Z,99502.47
2024-01-15T15:33:17.053Z,99550.94
2024-01-15T15:35:44.968Z,99617.22
2024-01-15T15:38:17.485Z,99608.66
2024-01-15T15:40:47.199Z,99533.72
2024-01-15T15:43:14.434Z,99526.88
2024-01-15T15:45:57.007Z,99672.41
2024-01-15T15:52:35.238Z,99776.06
2024-01-15T15:55:20.876Z,99775.25
2024-01-15T16:50:09.007Z,99748.97
2024-01-15T16:52:35.856Z,99799.94
2024-01-15T16:55:02.652Z,99806.03
2024-01-15T16:57:29.588Z,99757.75
2024-01-15T16:59:56.018Z,99731.16
2024-01-15T17:02:22.418Z,99746.19
2024-01-15T17:04:48.895Z,99822.88
2024-01-15T17:07:15.314Z,99809.44
2024-01-15T17:09:42.097Z,99740.47
2024-01-15T17:12:08.973Z,99790.91
2024-01-15T17:14:36.392Z,99703.44
2024-01-15T17:17:02.964Z,99787.50
2024-01-15T17:19:33.842Z,99751.31
2024-01-15T17:22:00.621Z,99741.22
2024-01-15T17:24:27.388Z,99778.75
2024-01-15T17:26:55.016Z,99787.41
2024-01-15T17:29:21.778Z,99761.75
2024-01-15T17:31:51.039Z,99811.72
2024-01-15T17:34:17.576Z,99817.81
2024-01-15T17:36:44.139Z,99770.28
2024-01-15T17:39:10.746Z,99844.03
2024-01-15T17:41:37.363Z,99818.78
2024-01-15T17:44:04.296Z,99765.03
2024-01-15T17:46:30.720Z,99780.94
2024-01-15T17:49:03.693Z,99769.59
2024-01-15T17:51:35.292Z,99862.69
2024-01-15T17:54:02.685Z,99870.13
2024-01-15T17:56:32.003Z,99834.63
2024-01-15T17:58:58.751Z,99842.53
2024-01-15T18:01:25.473Z,99801.91
2024-01-15T18:03:53.709Z,99854.06
2024-01-15T18:06:20.534Z,99807.66
2024-01-15T18:08:47.076Z,99787.25
2024-01-15T18:11:23.054Z,99890.53
2024-01-15T18:13:49.670Z,99784.28
2024-01-15T18:16:17.528Z,99845.13
2024-01-15T18:18:46.117Z,99805.81
2024-01-15T18:21:12.663Z,99869.81
2024-01-15T18:23:39.783Z,99870.88
2024-01-15T18:26:06.455Z,99806.66
2024-01-15T18:28:33.164Z,99868.19
2024-01-15T18:30:59.541Z,99872.19
2024-01-15T18:33:26.065Z,99800.28
2024-01-15T18:35:53.038Z,99784.41
2024-01-15T18:38:19.520Z,99851.25
2024-01-15T18:40:45.969Z,99832.78
2024-01-15T18:43:12.615Z,99737.50
2024-01-15T18:45:39.314Z,99858.75
2024-01-15T18:48:07.607Z,99854.09
2024-01-15T18:50:34.354Z,99778.53
2024-01-15T18:53:01.052Z,99885.81
2024-01-15T18:55:27.473Z,99856.97
2024-01-15T18:57:56.371Z,99857.16
2024-01-15T19:00:25.628Z,99842.94
2024-01-15T19:02:54.583Z,99868.91
2024-01-15T19:05:21.181Z,99804.13
2024-01-15T19:07:47.608Z,99833.97
2024-01-15T19:10:14.225Z,99869.03
2024-01-15T19:12:40.755Z,99813.41
2024-01-15T19:15:08.019Z,99854.31
2024-01-15T19:17:34.924Z,99817.25
2024-01-15T19:20:02.088Z,99794.53
2024-01-15T19:22:28.608Z,99869.66
2024-01-15T19:24:55.034Z,99848.88
2024-01-15T19:27:22.179Z,99896.69
2024-01-15T19:29:48.676Z,99857.66
2024-01-15T19:32:15.181Z,99860.06
2024-01-15T19:34:41.653Z,99876.81
2024-01-15T19:37:08.110Z,99824.91
2024-01-15T19:39:34.703Z,99840.81
2024-01-15T19:42:02.134Z,99895.94
2024-01-15T19:44:28.823Z,99805.09
2024-01-15T19:46:56.092Z,99818.13
2024-01-15T19:49:22.664Z,99902.84
2024-01-15T19:51:49.238Z,99906.91
2024-01-15T19:54:17.853Z,99902.25
2024-01-15T19:56:45.211Z,99854.41
2024-01-15T19:59:11.741Z,99834.50
2024-01-15T20:01:38.430Z,99911.63
2024-01-15T20:04:06.141Z,99910.19
2024-01-15T20:06:33.003Z,99909.38
2024-01-15T20:08:59.972Z,99853.09
2024-01-15T20:11:29.140Z,99877.88
2024-01-15T20:13:55.688Z,99849.50
2024-01-15T20:16:23.292Z,99937.53
2024-01-15T20:18:49.948Z,99922.47
2024-01-15T20:21:16.728Z,99921.91
2024-01-15T20:23:51.021Z,99880.19
2024-01-15T20:26:25.642Z,99912.38
2024-01-15T20:28:52.317Z,99891.31
2024-01-15T20:31:18.755Z,99883.47
2024-01-15T20:33:45.272Z,99905.84
2024-01-15T20:36:14.046Z,99889.75
2024-01-15T20:38:40.646Z,99928.38
2024-01-15T20:41:07.734Z,99946.06
2024-01-15T20:43:35.364Z,99969.88
2024-01-15T20:46:02.848Z,99969.66
2024-01-15T20:48:32.788Z,99975.63
2024-01-15T20:50:59.462Z,99948.38
2024-01-15T20:53:26.270Z,99992.09
2024-01-15T20:55:52.831Z,99993.97
2024-01-15T20:58:24.016Z,100024.38
2024-01-15T21:00:50.884Z,100024.06
2024-01-15T21:03:18.699Z,100001.13
2024-01-15T21:05:45.417Z,100036.84
2024-01-15T21:08:11.962Z,100025.56
2024-01-15T21:10:38.593Z,100024.03
2024-01-15T21:13:05.332Z,100029.94
2024-01-15T21:15:32.101Z,99966.28
2024-01-15T21:18:02.262Z,100004.75
2024-01-15T21:20:30.479Z,100026.16
2024-01-15T21:22:56.886Z,99949.63
2024-01-15T21:25:23.392Z,100010.09
2024-01-15T21:27:50.102Z,100030.00
2024-01-15T21:30:16.559Z,99984.59
2024-01-15T21:32:43.599Z,100080.44
2024-01-15T21:35:12.993Z,100074.66
2024-01-15T21:37:44.166Z,100049.50
2024-01-15T21:40:13.800Z,100004.91
2024-01-15T21:42:41.054Z,100074.72
2024-01-15T21:45:08.839Z,100103.44
2024-01-15T21:47:37.939Z,100096.63
2024-01-15T21:50:06.523Z,100100.50
2024-01-15T21:52:33.372Z,100072.56
2024-01-15T21:54:59.835Z,100041.97
2024-01-15T21:57:26.444Z,100104.13
2024-01-15T21:59:53.246Z,100156.72
2024-01-15T22:02:19.796Z,100107.69
2024-01-15T22:04:46.164Z,100148.81
2024-01-15T22:07:12.691Z,100116.19
2024-01-15T22:09:39.510Z,100169.38
2024-01-15T22:12:06.250Z,100114.03
2024-01-15T22:14:32.700Z,100140.03
2024-01-15T22:16:59.311Z,100108.25
2024-01-15T22:19:25.855Z,100112.34
2024-01-15T22:21:53.097Z,100167.19
2024-01-15T22:24:19.623Z,100223.66
2024-01-15T22:26:46.573Z,100214.31
2024-01-15T22:29:13.104Z,100211.84
2024-01-15T22:31:39.499Z,100186.63
2024-01-15T22:34:06.294Z,100163.03
2024-01-15T22:36:33.032Z,100172.09
2024-01-15T22:38:59.695Z,100219.25
2024-01-15T22:41:26.182Z,100204.16
2024-01-15T22:43:52.703Z,100194.56
2024-01-15T22:46:19.441Z,100249.41
2024-01-15T22:48:46.100Z,100249.16
2024-01-15T22:51:13.332Z,100222.78
2024-01-15T22:53:39.899Z,100256.81
2024-01-15T22:56:06.572Z,100245.31
2024-01-15T22:58:33.902Z,100271.06
2024-01-15T23:01:01.862Z,100243.09
2024-01-15T23:03:28.738Z,100215.91
2024-01-15T23:05:55.281Z,100248.84
2024-01-15T23:08:22.880Z,100198.09
2024-01-15T23:10:49.497Z,100227.38
2024-01-15T23:13:16.273Z,100278.09
2024-01-15T23:15:42.950Z,100260.81
2024-01-15T23:18:12.176Z,100291.22
2024-01-15T23:20:38.924Z,100292.88
2024-01-15T23:23:05.664Z,100322.81
2024-01-15T23:25:32.219Z,100265.97
2024-01-15T23:27:58.935Z,100328.28
2024-01-15T23:30:25.611Z,100279.97
2024-01-15T23:32:53.225Z,100324.72
2024-01-15T23:35:20.128Z,100270.00
2024-01-15T23:37:46.675Z,100286.00
2024-01-15T23:40:13.525Z,100344.16
2024-01-15T23:42:40.805Z,100305.41
2024-01-15T23:45:07.851Z,100339.97
2024-01-15T23:47:34.719Z,100367.72
2024-01-15T23:50:01.218Z,100282.34
2024-01-15T23:52:27.674Z,100331.78
2024-01-15T23:54:54.091Z,100343.31
2024-01-15T23:57:20.543Z,100347.16
2024-01-15T23:59:47.277Z,100349.69
